Aérodrome :
LOGIN :

S'inscrire | Disclaimer

   EN    FR    IT 

 










Légende :    VFR   VFR Marginal   IFR   IFR Intensif   IFR Très Intensif
Visi : 
Plafond : 
>= 8 km
>= 3000ft
5 à 8 km
1000 à 3000 ft
1500m à 5 km
500 à 1000 ft
800 à 1500m
200 à 500 ft
< 800m
< 200 ft
Symboles :   Orages  Brouillard  Fortes neiges  Fortes précipitations  Vent > 20 kt
SIGMETs :   Divers  Orages  Givrage  Turbulence  Onde Orograph.  Cendres Volcan.







- Altitude de l'aérodrome : 256 ft
- Code IATA : CFR
- Voir les cartes d'approche


LFRK - Caen

DERNIER METAR :
  • 210830Z AUTO 35004KT 310V010 5000 BR BKN009 14/12 Q1014 BECMG SCT020

METARs EXPIRÉS :
  • 210800Z AUTO 33004KT 280V010 4400 BR BKN007 14/14 Q1014 BECMG 9999 NSW SCT020
  • 210730Z AUTO 36003KT 320V040 3500 BR BKN006 13/13 Q1015 BECMG 9999 NSW SCT020
  • 210700Z AUTO 34004KT 310V010 2100 BR BKN002 12/12 Q1015 BECMG 9999 NSW SCT020
  • 210630Z AUTO VRB02KT 0550 0350 R31/0800U FG VV/// 11/11 Q1015 BECMG 9999 NSW SCT020
  • 210600Z AUTO 31002KT 0250 0200 R31/M0200U FG VV/// 10/10 Q1015 BECMG 9999 NSW SCT020
  • 210530Z AUTO VRB02KT 0250 R31/M0200N FG VV/// 10/10 Q1015 BECMG 9999 NSW SCT020

TAF TAF LFRK
Valide du 21 à 06h jusqu'au 21 à 15h UTC


210500Z 2106/2115 VRB03KT 0200 FG VV///
BECMG 2107/2109 9999 NSW SCT020
BECMG 2110/2112 01010KT
PROB30
TEMPO 2113/2115 4000 TSRA BKN030CB
Météo : +33 2 31 26 68 11
Pas de NOTAMs connus pour ce terrain.



MET'MAP, la Météo Aéronautique d'un coup d'oeil ! - Copyright ORBIFLY Décembre 2007 - Disclaimer

ORBIFLY MET'MAP TEAM :

Programmation & Développement : Alexandra Zaïnal
Conception & Développement : Baudouin d'Aumeries
Co-Programmation & Développement : Marc-Olivier Méhu
Soutien technique & logistique : Manuel Goepfert

Contact : metmap@orbifly.com




SOURCES & CREDITS :

   NOAA